createdAt,value
2018-08-22T00:02:01.697Z,14.16
2018-08-22T00:04:29.430Z,14.09
2018-08-22T00:06:58.339Z,14.07
2018-08-22T00:09:26.069Z,14.13
2018-08-22T00:11:54.381Z,14.10
2018-08-22T00:14:22.725Z,14.08
2018-08-22T00:16:51.620Z,14.04
2018-08-22T00:19:19.354Z,14.07
2018-08-22T00:21:47.670Z,14.21
2018-08-22T00:24:15.988Z,14.33
2018-08-22T00:26:44.297Z,14.41
2018-08-22T00:29:13.222Z,14.28
2018-08-22T00:31:41.501Z,14.16
2018-08-22T00:34:09.847Z,14.00
2018-08-22T00:36:37.564Z,13.89
2018-08-22T00:39:06.461Z,13.72
2018-08-22T00:41:34.773Z,13.57
2018-08-22T00:44:03.087Z,13.40
2018-08-22T00:46:30.822Z,13.33
2018-08-22T00:48:59.131Z,13.32
2018-08-22T00:51:28.016Z,13.24
2018-08-22T00:53:56.331Z,13.22
2018-08-22T00:56:24.650Z,13.26
2018-08-22T00:58:52.956Z,13.31
2018-08-22T01:01:21.277Z,13.40
2018-08-22T01:03:49.005Z,13.53
2018-08-22T01:06:17.321Z,13.52
2018-08-22T01:08:45.633Z,13.50
2018-08-22T01:11:13.950Z,13.52
2018-08-22T01:13:42.841Z,13.57
2018-08-22T01:16:11.152Z,13.61
2018-08-22T01:18:39.469Z,13.71
2018-08-22T01:21:07.792Z,13.69
2018-08-22T01:23:35.517Z,13.52
2018-08-22T01:26:03.869Z,13.46
2018-08-22T01:28:32.177Z,13.46
2018-08-22T01:31:01.079Z,13.42
2018-08-22T01:33:28.821Z,13.35
2018-08-22T01:35:57.133Z,13.26
2018-08-22T01:38:25.448Z,13.16
2018-08-22T01:40:54.340Z,13.19
2018-08-22T01:43:22.661Z,13.16
2018-08-22T01:45:50.977Z,13.30
2018-08-22T01:48:19.289Z,13.48
2018-08-22T01:50:47.025Z,13.62
2018-08-22T01:53:15.344Z,13.71
2018-08-22T01:55:44.238Z,13.70
2018-08-22T01:58:11.970Z,13.63
2018-08-22T02:00:40.864Z,13.63
2018-08-22T02:03:09.177Z,13.64
2018-08-22T02:05:37.490Z,13.65
2018-08-22T02:08:05.803Z,13.63
2018-08-22T02:10:34.111Z,13.62
2018-08-22T02:13:02.427Z,13.63
2018-08-22T02:15:30.738Z,13.61
2018-08-22T02:17:59.053Z,13.57
2018-08-22T02:20:27.668Z,13.57
2018-08-22T02:22:55.657Z,13.59
2018-08-22T02:25:23.967Z,13.59
2018-08-22T02:27:52.905Z,13.57
2018-08-22T02:30:20.638Z,13.55
2018-08-22T02:32:49.533Z,13.51
2018-08-22T02:35:17.848Z,13.50
2018-08-22T02:37:45.578Z,13.47
2018-08-22T02:40:14.473Z,13.45
2018-08-22T02:42:42.778Z,13.45
2018-08-22T02:45:10.514Z,13.52
2018-08-22T02:47:38.820Z,13.63
2018-08-22T02:50:07.133Z,13.74
2018-08-22T02:52:36.023Z,13.79
2018-08-22T02:55:04.107Z,13.84
2018-08-22T02:57:32.417Z,13.89
2018-08-22T03:00:01.311Z,13.95
2018-08-22T03:02:29.041Z,13.96
2018-08-22T03:04:57.737Z,13.94
2018-08-22T03:07:25.670Z,13.89
2018-08-22T03:09:54.566Z,13.75
2018-08-22T03:12:22.883Z,13.61
2018-08-22T03:14:50.616Z,13.58
2018-08-22T03:17:19.089Z,13.52
2018-08-22T03:19:47.241Z,13.58
2018-08-22T03:22:15.606Z,13.70
2018-08-22T03:24:43.881Z,13.81
2018-08-22T03:27:12.187Z,13.83
2018-08-22T03:29:41.105Z,13.84
2018-08-22T03:32:08.842Z,13.82
2018-08-22T03:34:37.153Z,13.84
2018-08-22T03:37:05.469Z,13.84
2018-08-22T03:39:34.366Z,13.80
2018-08-22T03:42:02.679Z,13.78
2018-08-22T03:44:30.425Z,13.68
2018-08-22T03:46:59.314Z,13.53
2018-08-22T03:49:27.625Z,13.45
2018-08-22T03:51:55.394Z,13.39
2018-08-22T03:54:24.289Z,13.37
2018-08-22T03:56:52.018Z,13.36
2018-08-22T03:59:20.331Z,13.44
2018-08-22T04:01:49.229Z,13.43
2018-08-22T04:04:16.978Z,13.47
2018-08-22T04:06:45.330Z,13.54
2018-08-22T04:09:13.660Z,13.59
2018-08-22T04:11:42.557Z,13.54
2018-08-22T04:14:10.877Z,13.46
2018-08-22T04:16:39.187Z,13.47
2018-08-22T04:19:07.506Z,13.55
2018-08-22T04:21:35.818Z,13.77
2018-08-22T04:24:04.143Z,14.28
2018-08-22T04:26:31.880Z,14.72
2018-08-22T04:29:00.205Z,15.07
2018-08-22T04:31:29.127Z,15.15
2018-08-22T04:33:57.451Z,14.87
2018-08-22T04:36:25.191Z,14.63
2018-08-22T04:38:53.558Z,14.55
2018-08-22T04:41:22.023Z,14.51
2018-08-22T04:43:50.157Z,14.63
2018-08-22T04:46:18.481Z,14.83
2018-08-22T04:48:46.794Z,15.12
2018-08-22T04:51:15.123Z,15.14
2018-08-22T04:53:43.442Z,15.15
2018-08-22T04:56:11.755Z,15.13
2018-08-22T04:58:40.870Z,15.14
2018-08-22T05:01:09.181Z,15.21
2018-08-22T05:03:37.282Z,15.17
2018-08-22T05:06:05.702Z,15.13
2018-08-22T05:08:33.918Z,15.13
2018-08-22T05:11:02.236Z,15.19
2018-08-22T05:13:30.546Z,15.23
2018-08-22T05:15:58.863Z,15.36
2018-08-22T05:18:26.595Z,15.70
2018-08-22T05:20:55.489Z,15.90
2018-08-22T05:23:23.217Z,16.03
2018-08-22T05:25:51.549Z,16.05
2018-08-22T05:28:20.436Z,16.09
2018-08-22T05:30:48.754Z,16.14
2018-08-22T05:33:16.513Z,16.17
2018-08-22T05:35:45.409Z,16.26
2018-08-22T05:38:14.017Z,16.29
2018-08-22T05:40:42.343Z,16.32
2018-08-22T05:43:10.066Z,16.39
2018-08-22T05:45:38.960Z,16.46
2018-08-22T05:48:07.273Z,16.55
2018-08-22T05:50:35.593Z,16.63
2018-08-22T05:53:03.901Z,16.71
2018-08-22T05:55:32.224Z,16.79
2018-08-22T05:57:59.947Z,16.86
2018-08-22T06:00:28.271Z,16.93
2018-08-22T06:02:57.181Z,17.00
2018-08-22T06:05:24.922Z,17.12
2018-08-22T06:07:53.819Z,17.40
2018-08-22T06:10:22.126Z,17.66
2018-08-22T06:12:50.447Z,17.71
2018-08-22T06:15:18.761Z,17.94
2018-08-22T06:17:47.076Z,17.97
2018-08-22T06:20:15.389Z,17.98
2018-08-22T06:22:43.712Z,18.00
2018-08-22T06:25:12.031Z,18.04
2018-08-22T06:27:39.759Z,18.10
2018-08-22T06:30:08.716Z,18.16
2018-08-22T06:35:10.716Z,18.30
2018-08-22T06:37:39.320Z,18.38
2018-08-22T06:40:07.469Z,18.45
2018-08-22T06:42:35.826Z,18.51
2018-08-22T06:45:04.195Z,18.56
2018-08-22T06:47:32.543Z,18.56
2018-08-22T06:50:00.971Z,18.61
2018-08-22T06:52:29.331Z,18.70
2018-08-22T06:54:57.687Z,18.79
2018-08-22T06:57:26.042Z,18.87
2018-08-22T06:59:54.398Z,18.93
2018-08-22T07:02:22.760Z,19.00
2018-08-22T07:04:51.125Z,19.07
2018-08-22T07:07:19.486Z,19.12
2018-08-22T07:09:47.864Z,19.16
2018-08-22T07:12:16.217Z,19.19
2018-08-22T07:14:44.572Z,19.24
2018-08-22T07:17:12.941Z,19.29
2018-08-22T07:19:41.300Z,19.22
2018-08-22T07:22:09.651Z,19.26
2018-08-22T07:24:38.026Z,19.30
2018-08-22T07:27:06.458Z,19.34
2018-08-22T07:29:34.818Z,19.42
2018-08-22T07:32:03.213Z,19.53
2018-08-22T07:34:31.568Z,19.58
2018-08-22T07:36:59.962Z,19.63
2018-08-22T07:39:28.336Z,19.66
2018-08-22T07:41:56.667Z,19.73
2018-08-22T07:44:25.018Z,19.80
2018-08-22T07:46:53.376Z,19.89
2018-08-22T07:49:21.760Z,20.00
2018-08-22T07:51:50.124Z,20.06
2018-08-22T07:54:18.483Z,20.14
2018-08-22T07:56:46.839Z,20.19
2018-08-22T07:59:15.197Z,20.24
2018-08-22T08:01:44.169Z,20.24
2018-08-22T08:04:12.529Z,20.26
2018-08-22T08:06:40.884Z,20.30
2018-08-22T08:09:09.237Z,20.31
2018-08-22T08:11:37.591Z,20.33
2018-08-22T08:14:05.956Z,20.41
2018-08-22T08:16:34.314Z,20.45
2018-08-22T08:19:02.675Z,20.48
2018-08-22T08:21:31.022Z,20.42
2018-08-22T08:23:59.389Z,20.39
2018-08-22T08:26:27.754Z,20.43
2018-08-22T08:28:56.116Z,20.47
2018-08-22T08:31:24.477Z,20.51
2018-08-22T08:33:52.840Z,20.54
2018-08-22T08:36:21.194Z,20.64
2018-08-22T08:38:49.597Z,20.74
2018-08-22T08:41:17.950Z,20.81
2018-08-22T08:43:46.311Z,20.83
2018-08-22T08:46:14.677Z,20.92
2018-08-22T08:48:43.030Z,20.99
2018-08-22T08:51:11.383Z,21.09
2018-08-22T08:53:39.738Z,21.17
2018-08-22T08:56:08.341Z,21.23
2018-08-22T08:58:36.702Z,21.34
2018-08-22T09:01:05.063Z,21.32
2018-08-22T09:03:33.447Z,21.35
2018-08-22T09:06:01.833Z,21.42
2018-08-22T09:08:30.186Z,21.53
2018-08-22T09:10:58.540Z,21.51
2018-08-22T09:13:26.907Z,21.47
2018-08-22T09:15:55.263Z,21.57
2018-08-22T09:18:23.616Z,21.69
2018-08-22T09:20:52.010Z,21.66
2018-08-22T09:23:20.333Z,21.72
2018-08-22T09:25:48.697Z,21.91
2018-08-22T09:28:17.065Z,21.94
2018-08-22T09:30:45.422Z,21.96
2018-08-22T09:33:13.780Z,22.12
2018-08-22T09:35:42.133Z,22.25
2018-08-22T09:38:10.504Z,22.28
2018-08-22T09:40:51.604Z,22.23
2018-08-22T09:43:25.322Z,22.14
2018-08-22T09:45:53.711Z,22.23
2018-08-22T09:48:22.068Z,22.35
2018-08-22T09:50:50.491Z,22.29
2018-08-22T09:53:18.794Z,22.22
2018-08-22T09:55:47.147Z,22.24
2018-08-22T09:58:15.589Z,22.29
2018-08-22T10:00:43.902Z,22.40
2018-08-22T10:03:12.226Z,22.54
2018-08-22T10:05:40.585Z,22.57
2018-08-22T10:08:08.954Z,22.63
2018-08-22T10:10:37.301Z,22.58
2018-08-22T10:13:05.662Z,22.49
2018-08-22T10:15:34.022Z,22.44
2018-08-22T10:18:02.397Z,22.42
2018-08-22T10:20:30.763Z,22.49
2018-08-22T10:22:59.160Z,22.61
2018-08-22T10:25:27.536Z,22.74
2018-08-22T10:27:55.896Z,22.89
2018-08-22T10:30:24.246Z,23.04
2018-08-22T10:32:52.713Z,22.95
2018-08-22T10:35:20.966Z,22.93
2018-08-22T10:37:49.319Z,23.03
2018-08-22T10:40:17.710Z,23.15
2018-08-22T10:42:46.306Z,23.30
2018-08-22T10:45:14.664Z,23.27
2018-08-22T10:47:43.079Z,23.17
2018-08-22T10:50:11.447Z,23.11
2018-08-22T10:52:39.798Z,23.07
2018-08-22T10:55:08.171Z,22.99
2018-08-22T10:57:36.868Z,22.99
2018-08-22T11:00:05.237Z,23.00
2018-08-22T11:02:33.604Z,23.00
2018-08-22T11:05:01.950Z,22.95
2018-08-22T11:07:30.310Z,22.90
2018-08-22T11:09:58.699Z,22.82
2018-08-22T11:12:27.036Z,22.83
2018-08-22T11:14:55.395Z,22.81
2018-08-22T11:17:23.755Z,22.83
2018-08-22T11:19:52.115Z,22.86
2018-08-22T11:22:32.353Z,22.87
2018-08-22T11:25:12.533Z,22.90
2018-08-22T11:27:52.869Z,23.15
2018-08-22T11:30:33.206Z,23.46
2018-08-22T11:33:13.289Z,23.78
2018-08-22T11:35:41.171Z,24.05
2018-08-22T11:38:09.542Z,24.20
2018-08-22T11:40:37.897Z,24.35
2018-08-22T11:43:06.260Z,24.49
2018-08-22T11:45:34.620Z,24.53
2018-08-22T11:48:03.007Z,24.47
2018-08-22T11:50:31.369Z,24.32
2018-08-22T11:52:59.739Z,24.46
2018-08-22T11:55:28.111Z,24.74
2018-08-22T11:57:56.461Z,24.94
2018-08-22T12:00:24.857Z,24.97
2018-08-22T12:02:53.549Z,25.00
2018-08-22T12:05:21.899Z,24.97
2018-08-22T12:07:50.255Z,25.13
2018-08-22T12:10:18.614Z,25.39
2018-08-22T12:12:46.969Z,25.72
2018-08-22T12:15:15.337Z,26.07
2018-08-22T12:17:43.982Z,26.17
2018-08-22T12:20:12.335Z,26.15
2018-08-22T12:22:40.690Z,26.20
2018-08-22T12:25:09.050Z,26.15
2018-08-22T12:27:37.418Z,25.97
2018-08-22T12:30:05.786Z,25.79
2018-08-22T12:32:34.136Z,25.57
2018-08-22T12:35:02.493Z,25.67
2018-08-22T12:37:30.849Z,26.00
2018-08-22T12:39:59.215Z,26.10
2018-08-22T12:42:27.579Z,25.94
2018-08-22T12:44:55.954Z,26.01
2018-08-22T12:47:24.316Z,26.33
2018-08-22T12:49:52.677Z,26.37
2018-08-22T12:52:21.046Z,26.50
2018-08-22T12:54:49.405Z,26.75
2018-08-22T12:57:17.781Z,27.07
2018-08-22T12:59:46.125Z,27.41
2018-08-22T13:02:14.512Z,27.58
2018-08-22T13:04:42.908Z,27.79
2018-08-22T13:07:11.225Z,27.82
2018-08-22T13:09:39.604Z,28.02
2018-08-22T13:12:07.964Z,28.32
2018-08-22T13:14:36.594Z,28.26
2018-08-22T13:17:05.059Z,28.29
2018-08-22T13:19:33.313Z,28.42
2018-08-22T13:22:01.669Z,28.48
2018-08-22T13:24:30.088Z,28.43
2018-08-22T13:26:58.400Z,28.29
2018-08-22T13:29:26.755Z,28.13
2018-08-22T13:31:55.104Z,27.82
2018-08-22T13:34:23.465Z,27.76
2018-08-22T13:36:51.830Z,27.99
2018-08-22T13:39:20.193Z,28.27
2018-08-22T13:41:48.562Z,28.44
2018-08-22T13:44:16.957Z,28.62
2018-08-22T13:46:45.405Z,28.87
2018-08-22T13:49:13.755Z,29.01
2018-08-22T13:51:42.144Z,28.96
2018-08-22T13:54:10.507Z,29.04
2018-08-22T13:56:38.871Z,29.12
2018-08-22T13:59:07.233Z,29.31
2018-08-22T14:01:35.594Z,29.48
2018-08-22T14:04:03.984Z,29.67
2018-08-22T14:06:32.300Z,29.99
2018-08-22T14:09:00.832Z,30.16
2018-08-22T14:11:28.581Z,30.30
2018-08-22T14:13:57.479Z,30.55
2018-08-22T14:16:25.233Z,30.88
2018-08-22T14:18:54.445Z,31.13
2018-08-22T14:21:22.799Z,31.37
2018-08-22T14:23:50.633Z,31.64
2018-08-22T14:26:18.886Z,31.74
2018-08-22T14:28:47.201Z,31.73
2018-08-22T14:31:16.119Z,31.78
2018-08-22T14:33:43.896Z,31.72
2018-08-22T14:36:12.744Z,31.52
2018-08-22T14:38:41.094Z,31.46
2018-08-22T14:41:09.410Z,31.82
2018-08-22T14:43:37.167Z,32.01
2018-08-22T14:46:06.069Z,32.30
2018-08-22T14:48:34.388Z,32.35
2018-08-22T14:51:02.703Z,32.30
2018-08-22T14:53:31.039Z,32.35
2018-08-22T14:55:58.836Z,32.38
2018-08-22T14:58:27.086Z,31.95
2018-08-22T15:00:55.457Z,31.86
2018-08-22T15:03:24.702Z,31.74
2018-08-22T15:05:52.385Z,31.92
2018-08-22T15:08:21.296Z,31.94
2018-08-22T15:10:49.659Z,31.74
2018-08-22T15:13:17.942Z,31.73
2018-08-22T15:15:46.487Z,31.86
2018-08-22T15:18:14.025Z,31.76
2018-08-22T15:20:42.901Z,31.98
2018-08-22T15:23:12.707Z,32.07
2018-08-22T15:25:39.070Z,31.80
2018-08-22T15:28:07.999Z,31.86
2018-08-22T15:30:35.752Z,31.89
2018-08-22T15:33:04.700Z,31.80
2018-08-22T15:35:33.044Z,31.81
2018-08-22T15:38:01.392Z,32.07
2018-08-22T15:40:29.793Z,32.10
2018-08-22T15:42:58.125Z,32.17
2018-08-22T15:45:25.850Z,32.30
2018-08-22T15:47:54.765Z,32.49
2018-08-22T15:50:23.158Z,32.23
2018-08-22T15:52:51.489Z,32.07
2018-08-22T15:55:19.799Z,32.33
2018-08-22T15:57:48.255Z,32.49
2018-08-22T16:00:16.670Z,32.55
2018-08-22T16:02:45.016Z,32.49
2018-08-22T16:05:13.343Z,32.59
2018-08-22T16:07:41.117Z,32.60
2018-08-22T16:10:10.022Z,32.28
2018-08-22T16:12:37.750Z,32.28
2018-08-22T16:15:06.699Z,31.97
2018-08-22T16:17:35.079Z,31.14
2018-08-22T16:20:03.399Z,30.38
2018-08-22T16:22:31.708Z,29.66
2018-08-22T16:25:00.029Z,28.78
2018-08-22T16:27:27.770Z,28.18
2018-08-22T16:29:56.668Z,27.76
2018-08-22T16:32:25.033Z,27.55
2018-08-22T16:34:53.543Z,27.34
2018-08-22T16:37:22.442Z,26.98
2018-08-22T16:39:50.799Z,26.64
2018-08-22T16:42:18.549Z,26.44
2018-08-22T16:44:47.438Z,26.33
2018-08-22T16:47:15.800Z,26.23
2018-08-22T16:49:44.120Z,26.19
2018-08-22T16:52:12.432Z,26.11
2018-08-22T16:54:40.858Z,26.08
2018-08-22T16:57:09.211Z,26.00
2018-08-22T16:59:37.509Z,25.87
2018-08-22T17:02:05.838Z,25.83
2018-08-22T17:04:34.247Z,25.78
2018-08-22T17:07:02.047Z,25.72
2018-08-22T17:09:30.950Z,25.64
2018-08-22T17:11:59.321Z,25.56
2018-08-22T17:14:27.639Z,25.49
2018-08-22T17:16:55.373Z,25.39
2018-08-22T17:19:24.283Z,25.37
2018-08-22T17:21:52.643Z,25.38
2018-08-22T17:24:20.960Z,25.35
2018-08-22T17:26:48.701Z,25.29
2018-08-22T17:29:17.597Z,25.28
2018-08-22T17:31:45.946Z,25.26
2018-08-22T17:34:14.284Z,25.19
2018-08-22T17:36:42.613Z,25.08
2018-08-22T17:39:10.946Z,25.01
2018-08-22T17:41:39.289Z,25.00
2018-08-22T17:44:07.622Z,24.99
2018-08-22T17:46:35.947Z,24.93
2018-08-22T17:49:04.326Z,24.89
2018-08-22T17:51:32.655Z,24.88
2018-08-22T17:54:00.411Z,24.80
2018-08-22T17:56:29.439Z,24.72
2018-08-22T17:58:57.787Z,24.65
2018-08-22T18:01:25.594Z,24.49
2018-08-22T18:03:54.496Z,24.39
2018-08-22T18:06:22.859Z,24.34
2018-08-22T18:08:51.169Z,24.30
2018-08-22T18:11:19.489Z,24.24
2018-08-22T18:13:47.913Z,24.22
2018-08-22T18:16:16.169Z,24.16
2018-08-22T18:18:44.486Z,24.11
2018-08-22T18:21:12.828Z,24.09
2018-08-22T18:23:41.145Z,24.05
2018-08-22T18:26:09.480Z,23.99
2018-08-22T18:28:37.249Z,23.94
2018-08-22T18:31:06.374Z,23.87
2018-08-22T18:33:33.900Z,23.84
2018-08-22T18:36:02.809Z,23.79
2018-08-22T18:38:31.144Z,23.70
2018-08-22T18:40:59.465Z,23.68
2018-08-22T18:43:27.802Z,23.60
2018-08-22T18:45:56.124Z,23.52
2018-08-22T18:48:23.877Z,23.47
2018-08-22T18:50:52.212Z,23.44
2018-08-22T18:53:21.278Z,23.40
2018-08-22T18:55:49.667Z,23.20
2018-08-22T18:58:17.990Z,23.09
2018-08-22T19:00:45.729Z,23.08
2018-08-22T19:03:14.635Z,23.01
2018-08-22T19:05:42.954Z,22.94
2018-08-22T19:08:11.332Z,22.90
2018-08-22T19:10:39.285Z,22.87
2018-08-22T19:13:08.243Z,22.80
2018-08-22T19:15:36.567Z,22.77
2018-08-22T19:18:04.904Z,22.76
2018-08-22T19:20:33.230Z,22.75
2018-08-22T19:23:01.565Z,22.70
2018-08-22T19:25:30.088Z,22.68
2018-08-22T19:27:58.234Z,22.65
2018-08-22T19:30:26.007Z,22.63
2018-08-22T19:32:54.336Z,22.60
2018-08-22T19:35:23.319Z,22.59
2018-08-22T19:37:51.646Z,22.56
2018-08-22T19:40:19.429Z,22.51
2018-08-22T19:42:48.666Z,22.43
2018-08-22T19:45:17.033Z,22.38
2018-08-22T19:47:44.762Z,22.37
2018-08-22T19:50:13.776Z,22.22
2018-08-22T19:52:42.121Z,21.99
2018-08-22T19:55:10.022Z,21.77
2018-08-22T19:57:38.925Z,21.68
2018-08-22T20:00:07.330Z,21.49
2018-08-22T20:02:35.686Z,21.17
2018-08-22T20:05:04.323Z,20.98
2018-08-22T20:07:32.652Z,20.95
2018-08-22T20:10:01.003Z,20.93
2018-08-22T20:12:29.353Z,20.92
2018-08-22T20:14:57.758Z,20.85
2018-08-22T20:17:26.084Z,20.72
2018-08-22T20:19:54.441Z,20.65
2018-08-22T20:22:22.821Z,20.60
2018-08-22T20:24:51.798Z,20.61
2018-08-22T20:27:19.535Z,20.61
2018-08-22T20:29:48.453Z,20.57
2018-08-22T20:32:16.858Z,20.56
2018-08-22T20:34:45.191Z,20.44
2018-08-22T20:37:13.560Z,20.33
2018-08-22T20:39:42.168Z,20.24
2018-08-22T20:42:10.245Z,20.18
2018-08-22T20:44:38.598Z,20.24
2018-08-22T20:47:06.941Z,20.37
2018-08-22T20:49:35.313Z,20.38
2018-08-22T20:52:03.664Z,20.40
2018-08-22T20:54:31.996Z,20.34
2018-08-22T20:57:00.366Z,20.32
2018-08-22T20:59:28.693Z,20.33
2018-08-22T21:01:56.932Z,20.38
2018-08-22T21:04:25.342Z,20.41
2018-08-22T21:06:53.086Z,20.44
2018-08-22T21:09:22.114Z,20.42
2018-08-22T21:11:50.422Z,20.38
2018-08-22T21:14:19.047Z,20.44
2018-08-22T21:16:47.139Z,20.45
2018-08-22T21:19:15.476Z,20.46
2018-08-22T21:21:43.203Z,20.41
2018-08-22T21:24:12.111Z,20.39
2018-08-22T21:26:40.424Z,20.43
2018-08-22T21:29:08.782Z,20.44
2018-08-22T21:31:37.100Z,20.44
2018-08-22T21:34:04.846Z,20.47
2018-08-22T21:36:33.183Z,20.49
2018-08-22T21:39:02.104Z,20.53
2018-08-22T21:41:29.849Z,20.47
2018-08-22T21:43:58.181Z,20.45
2018-08-22T21:46:27.082Z,20.41
2018-08-22T21:48:55.565Z,20.40
2018-08-22T21:51:23.332Z,20.36
2018-08-22T21:53:52.223Z,20.35
2018-08-22T21:56:20.047Z,20.34
2018-08-22T21:58:48.364Z,20.31
2018-08-22T22:01:17.262Z,20.28
2018-08-22T22:03:45.577Z,20.24
2018-08-22T22:06:13.902Z,20.28
2018-08-22T22:08:42.231Z,20.25
2018-08-22T22:11:11.713Z,20.20
2018-08-22T22:13:39.223Z,20.20
2018-08-22T22:16:08.136Z,20.19
2018-08-22T22:18:35.872Z,20.16
2018-08-22T22:21:04.771Z,20.15
2018-08-22T22:23:33.095Z,20.13
2018-08-22T22:28:39.119Z,20.14
2018-08-22T22:31:07.445Z,20.10
2018-08-22T22:33:40.816Z,20.04
2018-08-22T22:36:09.178Z,20.03
2018-08-22T22:38:37.520Z,20.03
2018-08-22T22:41:05.845Z,20.03
2018-08-22T22:43:33.597Z,20.05
2018-08-22T22:46:01.912Z,20.13
2018-08-22T22:48:30.237Z,20.21
2018-08-22T22:50:58.542Z,20.30
2018-08-22T22:53:27.469Z,20.39
2018-08-22T22:55:55.844Z,20.45
2018-08-22T22:58:24.160Z,20.51
2018-08-22T23:00:51.904Z,20.57
2018-08-22T23:03:20.212Z,20.63
2018-08-22T23:05:49.174Z,20.68
2018-08-22T23:13:24.190Z,20.70
2018-08-22T23:15:53.118Z,20.69
2018-08-22T23:18:20.883Z,20.70
2018-08-22T23:20:50.006Z,20.70
2018-08-22T23:23:18.082Z,20.68
2018-08-22T23:25:46.395Z,20.70
2018-08-22T23:28:14.712Z,20.69
2018-08-22T23:30:42.467Z,20.68
2018-08-22T23:33:10.781Z,20.68
2018-08-22T23:35:39.692Z,20.68
2018-08-22T23:38:08.077Z,20.67
2018-08-22T23:40:35.813Z,20.65
2018-08-22T23:43:04.700Z,20.66
2018-08-22T23:45:33.027Z,20.65
2018-08-22T23:48:01.345Z,20.60
2018-08-22T23:50:29.652Z,20.56
2018-08-22T23:52:57.386Z,20.52
2018-08-22T23:55:25.699Z,20.50
2018-08-22T23:57:54.590Z,20.50
